sensor_id;sensor_type;location;lat;lon;timestamp;P1;durP1;ratioP1;P2;durP2;ratioP2
63038;SDS011;49125;48.812;9.206;2022-10-16T00:00:36;1.08;;;0.98;;
63038;SDS011;49125;48.812;9.206;2022-10-16T00:03:03;1.33;;;1.23;;
63038;SDS011;49125;48.812;9.206;2022-10-16T00:05:29;1.63;;;1.40;;
63038;SDS011;49125;48.812;9.206;2022-10-16T00:07:55;1.95;;;1.55;;
63038;SDS011;49125;48.812;9.206;2022-10-16T00:10:21;1.27;;;1.17;;
63038;SDS011;49125;48.812;9.206;2022-10-16T00:12:46;1.90;;;1.30;;
63038;SDS011;49125;48.812;9.206;2022-10-16T00:15:12;1.58;;;1.30;;
63038;SDS011;49125;48.812;9.206;2022-10-16T00:17:38;1.50;;;1.20;;
63038;SDS011;49125;48.812;9.206;2022-10-16T00:20:04;1.30;;;1.20;;
63038;SDS011;49125;48.812;9.206;2022-10-16T00:22:29;1.90;;;1.30;;
63038;SDS011;49125;48.812;9.206;2022-10-16T00:24:55;1.58;;;1.38;;
63038;SDS011;49125;48.812;9.206;2022-10-16T00:27:21;1.38;;;1.20;;
63038;SDS011;49125;48.812;9.206;2022-10-16T00:29:50;1.48;;;1.38;;
63038;SDS011;49125;48.812;9.206;2022-10-16T00:32:17;1.58;;;1.35;;
63038;SDS011;49125;48.812;9.206;2022-10-16T00:34:43;1.42;;;1.33;;
63038;SDS011;49125;48.812;9.206;2022-10-16T00:37:08;1.73;;;1.30;;
63038;SDS011;49125;48.812;9.206;2022-10-16T00:39:34;1.88;;;1.02;;
63038;SDS011;49125;48.812;9.206;2022-10-16T00:42:00;1.58;;;1.33;;
63038;SDS011;49125;48.812;9.206;2022-10-16T00:44:45;1.40;;;1.30;;
63038;SDS011;49125;48.812;9.206;2022-10-16T00:47:18;1.27;;;1.17;;
63038;SDS011;49125;48.812;9.206;2022-10-16T00:49:47;1.85;;;1.63;;
63038;SDS011;49125;48.812;9.206;2022-10-16T00:52:16;4.65;;;1.70;;
63038;SDS011;49125;48.812;9.206;2022-10-16T00:54:42;2.08;;;1.67;;
63038;SDS011;49125;48.812;9.206;2022-10-16T00:57:09;1.75;;;1.17;;
63038;SDS011;49125;48.812;9.206;2022-10-16T00:59:35;1.48;;;1.30;;
63038;SDS011;49125;48.812;9.206;2022-10-16T01:02:04;1.40;;;1.30;;
63038;SDS011;49125;48.812;9.206;2022-10-16T01:04:34;3.15;;;1.45;;
63038;SDS011;49125;48.812;9.206;2022-10-16T01:12:23;1.42;;;1.30;;
63038;SDS011;49125;48.812;9.206;2022-10-16T01:15:08;1.30;;;1.20;;
63038;SDS011;49125;48.812;9.206;2022-10-16T01:23:18;2.10;;;1.60;;
63038;SDS011;49125;48.812;9.206;2022-10-16T01:29:01;1.38;;;1.27;;
63038;SDS011;49125;48.812;9.206;2022-10-16T01:31:33;1.58;;;1.40;;
63038;SDS011;49125;48.812;9.206;2022-10-16T01:34:15;1.75;;;1.33;;
63038;SDS011;49125;48.812;9.206;2022-10-16T01:36:46;1.73;;;1.30;;
63038;SDS011;49125;48.812;9.206;2022-10-16T01:39:18;1.38;;;1.27;;
63038;SDS011;49125;48.812;9.206;2022-10-16T01:41:48;2.80;;;1.50;;
63038;SDS011;49125;48.812;9.206;2022-10-16T01:44:20;1.63;;;1.52;;
63038;SDS011;49125;48.812;9.206;2022-10-16T01:46:50;2.55;;;1.50;;
63038;SDS011;49125;48.812;9.206;2022-10-16T01:49:18;1.50;;;1.30;;
63038;SDS011;49125;48.812;9.206;2022-10-16T01:51:46;1.80;;;1.50;;
63038;SDS011;49125;48.812;9.206;2022-10-16T01:54:16;1.45;;;1.35;;
63038;SDS011;49125;48.812;9.206;2022-10-16T01:56:45;1.63;;;1.45;;
63038;SDS011;49125;48.812;9.206;2022-10-16T01:59:14;2.03;;;1.65;;
63038;SDS011;49125;48.812;9.206;2022-10-16T02:01:45;1.70;;;1.60;;
63038;SDS011;49125;48.812;9.206;2022-10-16T02:04:48;2.58;;;1.67;;
63038;SDS011;49125;48.812;9.206;2022-10-16T02:07:08;1.55;;;1.45;;
63038;SDS011;49125;48.812;9.206;2022-10-16T02:09:34;2.08;;;1.88;;
63038;SDS011;49125;48.812;9.206;2022-10-16T02:12:03;1.90;;;1.63;;
63038;SDS011;49125;48.812;9.206;2022-10-16T02:14:36;3.15;;;1.50;;
63038;SDS011;49125;48.812;9.206;2022-10-16T02:17:09;2.15;;;1.58;;
63038;SDS011;49125;48.812;9.206;2022-10-16T02:19:36;4.57;;;1.55;;
63038;SDS011;49125;48.812;9.206;2022-10-16T02:22:04;2.00;;;1.73;;
63038;SDS011;49125;48.812;9.206;2022-10-16T02:27:21;1.60;;;1.50;;
63038;SDS011;49125;48.812;9.206;2022-10-16T02:30:00;1.73;;;1.40;;
63038;SDS011;49125;48.812;9.206;2022-10-16T02:32:33;4.72;;;1.77;;
63038;SDS011;49125;48.812;9.206;2022-10-16T02:35:00;1.65;;;1.30;;
63038;SDS011;49125;48.812;9.206;2022-10-16T02:37:28;2.17;;;1.48;;
63038;SDS011;49125;48.812;9.206;2022-10-16T02:39:55;1.70;;;1.40;;
63038;SDS011;49125;48.812;9.206;2022-10-16T02:42:27;1.90;;;1.60;;
63038;SDS011;49125;48.812;9.206;2022-10-16T02:44:54;1.75;;;1.50;;
63038;SDS011;49125;48.812;9.206;2022-10-16T02:47:20;1.88;;;1.40;;
63038;SDS011;49125;48.812;9.206;2022-10-16T02:49:45;1.75;;;1.45;;
63038;SDS011;49125;48.812;9.206;2022-10-16T02:52:11;3.22;;;1.67;;
63038;SDS011;49125;48.812;9.206;2022-10-16T02:54:36;2.40;;;1.50;;
63038;SDS011;49125;48.812;9.206;2022-10-16T02:57:02;2.67;;;1.67;;
63038;SDS011;49125;48.812;9.206;2022-10-16T02:59:27;1.75;;;1.40;;
63038;SDS011;49125;48.812;9.206;2022-10-16T03:01:53;2.70;;;1.58;;
63038;SDS011;49125;48.812;9.206;2022-10-16T03:04:19;1.50;;;1.40;;
63038;SDS011;49125;48.812;9.206;2022-10-16T03:06:44;1.67;;;1.30;;
63038;SDS011;49125;48.812;9.206;2022-10-16T03:09:10;2.28;;;1.70;;
63038;SDS011;49125;48.812;9.206;2022-10-16T03:11:35;1.92;;;1.50;;
63038;SDS011;49125;48.812;9.206;2022-10-16T03:14:01;1.80;;;1.10;;
63038;SDS011;49125;48.812;9.206;2022-10-16T03:16:26;1.77;;;1.30;;
63038;SDS011;49125;48.812;9.206;2022-10-16T03:18:52;1.70;;;1.45;;
63038;SDS011;49125;48.812;9.206;2022-10-16T03:21:17;1.83;;;1.50;;
63038;SDS011;49125;48.812;9.206;2022-10-16T03:23:43;1.42;;;1.27;;
63038;SDS011;49125;48.812;9.206;2022-10-16T03:26:08;4.80;;;1.30;;
63038;SDS011;49125;48.812;9.206;2022-10-16T03:28:34;2.15;;;1.63;;
63038;SDS011;49125;48.812;9.206;2022-10-16T03:30:59;1.25;;;1.15;;
63038;SDS011;49125;48.812;9.206;2022-10-16T03:33:25;1.50;;;1.40;;
63038;SDS011;49125;48.812;9.206;2022-10-16T03:35:51;1.67;;;1.58;;
63038;SDS011;49125;48.812;9.206;2022-10-16T03:38:18;1.88;;;1.63;;
63038;SDS011;49125;48.812;9.206;2022-10-16T03:40:44;1.50;;;1.40;;
63038;SDS011;49125;48.812;9.206;2022-10-16T03:43:09;2.13;;;1.75;;
63038;SDS011;49125;48.812;9.206;2022-10-16T03:45:35;1.60;;;1.38;;
63038;SDS011;49125;48.812;9.206;2022-10-16T03:48:00;2.05;;;1.65;;
63038;SDS011;49125;48.812;9.206;2022-10-16T03:50:28;1.65;;;1.48;;
63038;SDS011;49125;48.812;9.206;2022-10-16T03:52:54;1.52;;;1.42;;
63038;SDS011;49125;48.812;9.206;2022-10-16T03:55:19;1.83;;;1.63;;
63038;SDS011;49125;48.812;9.206;2022-10-16T03:57:45;2.42;;;1.70;;
63038;SDS011;49125;48.812;9.206;2022-10-16T04:00:10;2.35;;;1.50;;
63038;SDS011;49125;48.812;9.206;2022-10-16T04:02:36;2.13;;;1.70;;
63038;SDS011;49125;48.812;9.206;2022-10-16T04:05:02;2.97;;;1.95;;
63038;SDS011;49125;48.812;9.206;2022-10-16T04:07:28;1.77;;;1.67;;
63038;SDS011;49125;48.812;9.206;2022-10-16T04:09:53;1.92;;;1.60;;
63038;SDS011;49125;48.812;9.206;2022-10-16T04:12:19;1.90;;;1.65;;
63038;SDS011;49125;48.812;9.206;2022-10-16T04:14:45;1.75;;;1.20;;
63038;SDS011;49125;48.812;9.206;2022-10-16T04:17:10;1.95;;;1.60;;
63038;SDS011;49125;48.812;9.206;2022-10-16T04:19:36;2.40;;;1.50;;
63038;SDS011;49125;48.812;9.206;2022-10-16T04:22:02;1.98;;;1.40;;
63038;SDS011;49125;48.812;9.206;2022-10-16T04:24:27;2.70;;;1.70;;
63038;SDS011;49125;48.812;9.206;2022-10-16T04:26:53;4.63;;;1.90;;
63038;SDS011;49125;48.812;9.206;2022-10-16T04:29:18;4.03;;;1.70;;
63038;SDS011;49125;48.812;9.206;2022-10-16T04:31:44;2.10;;;1.70;;
63038;SDS011;49125;48.812;9.206;2022-10-16T04:34:10;2.20;;;1.63;;
63038;SDS011;49125;48.812;9.206;2022-10-16T04:36:35;1.75;;;1.58;;
63038;SDS011;49125;48.812;9.206;2022-10-16T04:39:01;2.40;;;1.77;;
63038;SDS011;49125;48.812;9.206;2022-10-16T04:41:26;1.85;;;1.48;;
63038;SDS011;49125;48.812;9.206;2022-10-16T04:43:52;2.42;;;1.65;;
63038;SDS011;49125;48.812;9.206;2022-10-16T04:46:17;1.60;;;1.50;;
63038;SDS011;49125;48.812;9.206;2022-10-16T04:48:43;2.15;;;1.95;;
63038;SDS011;49125;48.812;9.206;2022-10-16T04:51:08;1.88;;;1.60;;
63038;SDS011;49125;48.812;9.206;2022-10-16T04:53:34;3.47;;;2.00;;
63038;SDS011;49125;48.812;9.206;2022-10-16T04:56:00;2.17;;;1.98;;
63038;SDS011;49125;48.812;9.206;2022-10-16T04:58:25;1.60;;;1.50;;
63038;SDS011;49125;48.812;9.206;2022-10-16T05:00:51;2.08;;;1.70;;
63038;SDS011;49125;48.812;9.206;2022-10-16T05:03:16;1.75;;;1.60;;
63038;SDS011;49125;48.812;9.206;2022-10-16T05:05:43;3.25;;;1.52;;
63038;SDS011;49125;48.812;9.206;2022-10-16T05:08:09;1.88;;;1.77;;
63038;SDS011;49125;48.812;9.206;2022-10-16T05:10:36;1.67;;;1.58;;
63038;SDS011;49125;48.812;9.206;2022-10-16T05:13:01;2.10;;;1.85;;
63038;SDS011;49125;48.812;9.206;2022-10-16T05:15:27;2.13;;;1.65;;
63038;SDS011;49125;48.812;9.206;2022-10-16T05:17:53;2.67;;;1.48;;
63038;SDS011;49125;48.812;9.206;2022-10-16T05:20:19;2.00;;;1.80;;
63038;SDS011;49125;48.812;9.206;2022-10-16T05:22:45;2.55;;;1.98;;
63038;SDS011;49125;48.812;9.206;2022-10-16T05:25:10;1.70;;;1.60;;
63038;SDS011;49125;48.812;9.206;2022-10-16T05:27:36;2.55;;;1.50;;
63038;SDS011;49125;48.812;9.206;2022-10-16T05:30:01;1.88;;;1.40;;
63038;SDS011;49125;48.812;9.206;2022-10-16T05:32:28;2.65;;;1.77;;
63038;SDS011;49125;48.812;9.206;2022-10-16T05:34:53;2.25;;;1.80;;
63038;SDS011;49125;48.812;9.206;2022-10-16T05:37:19;1.75;;;1.50;;
63038;SDS011;49125;48.812;9.206;2022-10-16T05:39:44;2.15;;;1.83;;
63038;SDS011;49125;48.812;9.206;2022-10-16T05:42:10;5.68;;;1.70;;
63038;SDS011;49125;48.812;9.206;2022-10-16T05:44:36;3.15;;;1.77;;
63038;SDS011;49125;48.812;9.206;2022-10-16T05:47:01;2.42;;;1.85;;
63038;SDS011;49125;48.812;9.206;2022-10-16T05:49:27;2.05;;;1.85;;
63038;SDS011;49125;48.812;9.206;2022-10-16T05:51:52;2.92;;;1.60;;
63038;SDS011;49125;48.812;9.206;2022-10-16T05:54:18;2.10;;;1.63;;
63038;SDS011;49125;48.812;9.206;2022-10-16T05:56:44;1.70;;;1.55;;
63038;SDS011;49125;48.812;9.206;2022-10-16T05:59:09;3.40;;;1.67;;
63038;SDS011;49125;48.812;9.206;2022-10-16T06:01:35;2.00;;;1.80;;
63038;SDS011;49125;48.812;9.206;2022-10-16T06:04:01;2.45;;;2.08;;
63038;SDS011;49125;48.812;9.206;2022-10-16T06:06:27;2.35;;;1.75;;
63038;SDS011;49125;48.812;9.206;2022-10-16T06:08:53;2.67;;;1.73;;
63038;SDS011;49125;48.812;9.206;2022-10-16T06:11:26;1.75;;;1.65;;
63038;SDS011;49125;48.812;9.206;2022-10-16T06:13:55;2.05;;;1.67;;
63038;SDS011;49125;48.812;9.206;2022-10-16T06:16:22;1.55;;;1.45;;
63038;SDS011;49125;48.812;9.206;2022-10-16T06:18:53;2.28;;;1.70;;
63038;SDS011;49125;48.812;9.206;2022-10-16T06:21:21;1.80;;;1.70;;
63038;SDS011;49125;48.812;9.206;2022-10-16T06:23:49;2.20;;;1.58;;
63038;SDS011;49125;48.812;9.206;2022-10-16T06:26:17;1.85;;;1.50;;
63038;SDS011;49125;48.812;9.206;2022-10-16T06:28:45;2.30;;;1.67;;
63038;SDS011;49125;48.812;9.206;2022-10-16T06:31:10;1.60;;;1.50;;
63038;SDS011;49125;48.812;9.206;2022-10-16T06:33:38;2.15;;;1.52;;
63038;SDS011;49125;48.812;9.206;2022-10-16T06:36:05;2.20;;;1.65;;
63038;SDS011;49125;48.812;9.206;2022-10-16T06:38:42;3.88;;;1.60;;
63038;SDS011;49125;48.812;9.206;2022-10-16T06:41:09;4.32;;;3.78;;
63038;SDS011;49125;48.812;9.206;2022-10-16T06:43:40;3.03;;;2.10;;
63038;SDS011;49125;48.812;9.206;2022-10-16T06:46:07;2.20;;;1.83;;
63038;SDS011;49125;48.812;9.206;2022-10-16T06:48:35;2.08;;;1.60;;
63038;SDS011;49125;48.812;9.206;2022-10-16T06:53:27;2.08;;;1.88;;
63038;SDS011;49125;48.812;9.206;2022-10-16T06:55:55;2.95;;;1.75;;
63038;SDS011;49125;48.812;9.206;2022-10-16T06:58:21;2.03;;;1.52;;
63038;SDS011;49125;48.812;9.206;2022-10-16T07:00:47;2.42;;;1.92;;
63038;SDS011;49125;48.812;9.206;2022-10-16T07:03:13;2.72;;;2.05;;
63038;SDS011;49125;48.812;9.206;2022-10-16T07:05:39;3.08;;;1.90;;
63038;SDS011;49125;48.812;9.206;2022-10-16T07:08:07;2.50;;;2.05;;
63038;SDS011;49125;48.812;9.206;2022-10-16T07:10:33;2.33;;;1.83;;
63038;SDS011;49125;48.812;9.206;2022-10-16T07:12:59;1.92;;;1.75;;
63038;SDS011;49125;48.812;9.206;2022-10-16T07:15:25;2.55;;;1.65;;
63038;SDS011;49125;48.812;9.206;2022-10-16T07:17:51;2.20;;;1.60;;
63038;SDS011;49125;48.812;9.206;2022-10-16T07:20:17;1.63;;;1.52;;
63038;SDS011;49125;48.812;9.206;2022-10-16T07:22:43;1.90;;;1.70;;
63038;SDS011;49125;48.812;9.206;2022-10-16T07:25:09;3.67;;;1.98;;
63038;SDS011;49125;48.812;9.206;2022-10-16T07:27:34;2.10;;;1.70;;
63038;SDS011;49125;48.812;9.206;2022-10-16T07:30:00;2.22;;;1.67;;
63038;SDS011;49125;48.812;9.206;2022-10-16T07:32:26;1.88;;;1.50;;
63038;SDS011;49125;48.812;9.206;2022-10-16T07:34:52;2.80;;;1.95;;
63038;SDS011;49125;48.812;9.206;2022-10-16T07:37:18;2.40;;;1.80;;
63038;SDS011;49125;48.812;9.206;2022-10-16T07:39:43;1.83;;;1.63;;
63038;SDS011;49125;48.812;9.206;2022-10-16T07:42:09;2.30;;;1.70;;
63038;SDS011;49125;48.812;9.206;2022-10-16T07:44:34;2.13;;;1.70;;
63038;SDS011;49125;48.812;9.206;2022-10-16T07:47:00;2.45;;;1.70;;
63038;SDS011;49125;48.812;9.206;2022-10-16T07:49:26;1.90;;;1.70;;
63038;SDS011;49125;48.812;9.206;2022-10-16T07:51:52;2.08;;;1.90;;
63038;SDS011;49125;48.812;9.206;2022-10-16T07:54:17;1.90;;;1.80;;
63038;SDS011;49125;48.812;9.206;2022-10-16T07:56:43;2.33;;;1.95;;
63038;SDS011;49125;48.812;9.206;2022-10-16T07:59:08;2.95;;;2.00;;
63038;SDS011;49125;48.812;9.206;2022-10-16T08:01:34;2.00;;;1.73;;
63038;SDS011;49125;48.812;9.206;2022-10-16T08:03:59;2.50;;;1.70;;
63038;SDS011;49125;48.812;9.206;2022-10-16T08:06:25;1.50;;;1.40;;
63038;SDS011;49125;48.812;9.206;2022-10-16T08:08:51;1.83;;;1.67;;
63038;SDS011;49125;48.812;9.206;2022-10-16T08:11:16;1.73;;;1.50;;
63038;SDS011;49125;48.812;9.206;2022-10-16T08:13:42;1.95;;;1.75;;
63038;SDS011;49125;48.812;9.206;2022-10-16T08:16:08;2.05;;;1.70;;
63038;SDS011;49125;48.812;9.206;2022-10-16T08:18:35;4.00;;;1.60;;
63038;SDS011;49125;48.812;9.206;2022-10-16T08:21:02;1.90;;;1.60;;
63038;SDS011;49125;48.812;9.206;2022-10-16T08:23:29;2.03;;;1.35;;
63038;SDS011;49125;48.812;9.206;2022-10-16T08:25:55;3.40;;;1.73;;
63038;SDS011;49125;48.812;9.206;2022-10-16T08:28:22;1.60;;;1.50;;
63038;SDS011;49125;48.812;9.206;2022-10-16T08:30:48;1.88;;;1.60;;
63038;SDS011;49125;48.812;9.206;2022-10-16T08:33:14;1.65;;;1.55;;
63038;SDS011;49125;48.812;9.206;2022-10-16T08:35:39;1.50;;;1.40;;
63038;SDS011;49125;48.812;9.206;2022-10-16T08:38:05;1.77;;;1.40;;
63038;SDS011;49125;48.812;9.206;2022-10-16T08:40:32;1.50;;;1.38;;
63038;SDS011;49125;48.812;9.206;2022-10-16T08:43:14;2.20;;;1.65;;
63038;SDS011;49125;48.812;9.206;2022-10-16T08:48:51;2.13;;;1.33;;
63038;SDS011;49125;48.812;9.206;2022-10-16T08:51:23;2.22;;;1.60;;
63038;SDS011;49125;48.812;9.206;2022-10-16T08:53:58;2.10;;;1.60;;
63038;SDS011;49125;48.812;9.206;2022-10-16T08:56:27;3.03;;;1.17;;
63038;SDS011;49125;48.812;9.206;2022-10-16T08:58:53;1.58;;;1.20;;
63038;SDS011;49125;48.812;9.206;2022-10-16T09:01:20;4.40;;;1.60;;
63038;SDS011;49125;48.812;9.206;2022-10-16T09:04:01;2.15;;;1.55;;
63038;SDS011;49125;48.812;9.206;2022-10-16T09:06:50;1.50;;;1.40;;
63038;SDS011;49125;48.812;9.206;2022-10-16T09:17:03;2.00;;;1.40;;
63038;SDS011;49125;48.812;9.206;2022-10-16T09:19:48;3.35;;;1.63;;
63038;SDS011;49125;48.812;9.206;2022-10-16T09:22:21;1.25;;;1.15;;
63038;SDS011;49125;48.812;9.206;2022-10-16T09:24:51;5.55;;;4.78;;
63038;SDS011;49125;48.812;9.206;2022-10-16T09:27:16;1.60;;;1.30;;
63038;SDS011;49125;48.812;9.206;2022-10-16T09:29:42;1.42;;;1.33;;
63038;SDS011;49125;48.812;9.206;2022-10-16T09:32:14;4.60;;;1.35;;
63038;SDS011;49125;48.812;9.206;2022-10-16T09:34:52;1.45;;;1.20;;
63038;SDS011;49125;48.812;9.206;2022-10-16T09:37:21;2.00;;;1.63;;
63038;SDS011;49125;48.812;9.206;2022-10-16T09:39:49;3.65;;;3.10;;
63038;SDS011;49125;48.812;9.206;2022-10-16T09:42:17;1.98;;;1.77;;
63038;SDS011;49125;48.812;9.206;2022-10-16T09:44:46;3.65;;;1.85;;
63038;SDS011;49125;48.812;9.206;2022-10-16T09:47:18;1.60;;;1.40;;
63038;SDS011;49125;48.812;9.206;2022-10-16T09:52:27;2.00;;;1.30;;
63038;SDS011;49125;48.812;9.206;2022-10-16T09:54:55;1.85;;;1.20;;
63038;SDS011;49125;48.812;9.206;2022-10-16T09:57:22;2.60;;;1.30;;
63038;SDS011;49125;48.812;9.206;2022-10-16T09:59:52;1.65;;;1.50;;
63038;SDS011;49125;48.812;9.206;2022-10-16T10:02:34;1.58;;;1.40;;
63038;SDS011;49125;48.812;9.206;2022-10-16T10:05:00;1.45;;;1.35;;
63038;SDS011;49125;48.812;9.206;2022-10-16T10:07:42;1.20;;;1.10;;
63038;SDS011;49125;48.812;9.206;2022-10-16T10:10:23;1.80;;;1.33;;
63038;SDS011;49125;48.812;9.206;2022-10-16T10:13:19;1.40;;;1.30;;
63038;SDS011;49125;48.812;9.206;2022-10-16T10:15:46;1.00;;;0.90;;
63038;SDS011;49125;48.812;9.206;2022-10-16T10:18:16;3.28;;;1.63;;
63038;SDS011;49125;48.812;9.206;2022-10-16T10:20:56;2.38;;;1.10;;
63038;SDS011;49125;48.812;9.206;2022-10-16T10:23:27;1.23;;;1.10;;
63038;SDS011;49125;48.812;9.206;2022-10-16T10:26:02;1.55;;;1.45;;
63038;SDS011;49125;48.812;9.206;2022-10-16T10:31:58;2.50;;;2.30;;
63038;SDS011;49125;48.812;9.206;2022-10-16T10:36:37;1.60;;;1.50;;
63038;SDS011;49125;48.812;9.206;2022-10-16T10:41:57;1.70;;;1.50;;
63038;SDS011;49125;48.812;9.206;2022-10-16T10:57:00;1.23;;;1.13;;
63038;SDS011;49125;48.812;9.206;2022-10-16T10:59:22;1.40;;;1.30;;
63038;SDS011;49125;48.812;9.206;2022-10-16T11:07:02;1.60;;;1.10;;
63038;SDS011;49125;48.812;9.206;2022-10-16T11:15:04;1.38;;;1.08;;
63038;SDS011;49125;48.812;9.206;2022-10-16T11:17:42;0.90;;;0.90;;
63038;SDS011;49125;48.812;9.206;2022-10-16T11:20:13;1.10;;;1.10;;
63038;SDS011;49125;48.812;9.206;2022-10-16T11:22:48;2.13;;;1.13;;
63038;SDS011;49125;48.812;9.206;2022-10-16T11:30:47;1.75;;;1.65;;
63038;SDS011;49125;48.812;9.206;2022-10-16T11:33:22;1.60;;;1.50;;
63038;SDS011;49125;48.812;9.206;2022-10-16T11:41:07;1.50;;;1.40;;
63038;SDS011;49125;48.812;9.206;2022-10-16T11:43:38;1.50;;;1.40;;
63038;SDS011;49125;48.812;9.206;2022-10-16T11:46:09;1.17;;;1.08;;
63038;SDS011;49125;48.812;9.206;2022-10-16T11:48:41;2.25;;;1.20;;
63038;SDS011;49125;48.812;9.206;2022-10-16T11:51:32;1.90;;;1.27;;
63038;SDS011;49125;48.812;9.206;2022-10-16T11:56:46;1.20;;;1.10;;
63038;SDS011;49125;48.812;9.206;2022-10-16T12:01:48;1.27;;;1.17;;
63038;SDS011;49125;48.812;9.206;2022-10-16T12:04:39;1.30;;;1.20;;
63038;SDS011;49125;48.812;9.206;2022-10-16T12:07:32;1.27;;;1.15;;
63038;SDS011;49125;48.812;9.206;2022-10-16T12:10:18;1.58;;;1.38;;
63038;SDS011;49125;48.812;9.206;2022-10-16T12:12:49;1.70;;;1.20;;
63038;SDS011;49125;48.812;9.206;2022-10-16T12:15:23;1.23;;;1.13;;
63038;SDS011;49125;48.812;9.206;2022-10-16T12:17:51;3.92;;;1.23;;
63038;SDS011;49125;48.812;9.206;2022-10-16T12:22:55;1.20;;;1.10;;
63038;SDS011;49125;48.812;9.206;2022-10-16T12:25:33;1.17;;;1.08;;
63038;SDS011;49125;48.812;9.206;2022-10-16T12:30:40;1.30;;;1.20;;
63038;SDS011;49125;48.812;9.206;2022-10-16T12:33:30;1.20;;;1.13;;
63038;SDS011;49125;48.812;9.206;2022-10-16T12:35:58;1.45;;;1.33;;
63038;SDS011;49125;48.812;9.206;2022-10-16T12:38:28;1.00;;;1.00;;
63038;SDS011;49125;48.812;9.206;2022-10-16T12:41:29;1.05;;;0.98;;
63038;SDS011;49125;48.812;9.206;2022-10-16T12:43:57;1.33;;;1.20;;
63038;SDS011;49125;48.812;9.206;2022-10-16T12:46:26;1.42;;;1.13;;
63038;SDS011;49125;48.812;9.206;2022-10-16T12:51:41;1.30;;;1.20;;
63038;SDS011;49125;48.812;9.206;2022-10-16T12:54:14;1.23;;;1.13;;
63038;SDS011;49125;48.812;9.206;2022-10-16T13:10:40;1.02;;;1.02;;
63038;SDS011;49125;48.812;9.206;2022-10-16T13:13:32;1.90;;;1.30;;
63038;SDS011;49125;48.812;9.206;2022-10-16T13:19:18;1.30;;;1.20;;
63038;SDS011;49125;48.812;9.206;2022-10-16T13:22:05;1.23;;;1.13;;
63038;SDS011;49125;48.812;9.206;2022-10-16T13:24:58;1.20;;;1.10;;
63038;SDS011;49125;48.812;9.206;2022-10-16T13:27:55;1.15;;;1.08;;
63038;SDS011;49125;48.812;9.206;2022-10-16T13:30:25;1.08;;;1.05;;
63038;SDS011;49125;48.812;9.206;2022-10-16T13:33:02;2.03;;;1.70;;
63038;SDS011;49125;48.812;9.206;2022-10-16T13:35:33;1.27;;;1.15;;
63038;SDS011;49125;48.812;9.206;2022-10-16T13:38:19;2.25;;;1.30;;
63038;SDS011;49125;48.812;9.206;2022-10-16T13:41:02;1.20;;;1.10;;
63038;SDS011;49125;48.812;9.206;2022-10-16T13:43:39;1.30;;;1.20;;
63038;SDS011;49125;48.812;9.206;2022-10-16T13:46:23;1.50;;;1.40;;
63038;SDS011;49125;48.812;9.206;2022-10-16T13:48:59;0.98;;;0.98;;
63038;SDS011;49125;48.812;9.206;2022-10-16T13:51:26;1.67;;;1.17;;
63038;SDS011;49125;48.812;9.206;2022-10-16T13:53:52;1.58;;;1.45;;
63038;SDS011;49125;48.812;9.206;2022-10-16T13:56:21;1.48;;;1.38;;
63038;SDS011;49125;48.812;9.206;2022-10-16T13:59:06;2.28;;;1.25;;
63038;SDS011;49125;48.812;9.206;2022-10-16T14:01:47;1.85;;;1.25;;
63038;SDS011;49125;48.812;9.206;2022-10-16T14:04:13;1.45;;;1.27;;
63038;SDS011;49125;48.812;9.206;2022-10-16T14:06:43;2.10;;;1.30;;
63038;SDS011;49125;48.812;9.206;2022-10-16T14:11:49;1.30;;;1.20;;
63038;SDS011;49125;48.812;9.206;2022-10-16T14:14:16;1.60;;;1.40;;
63038;SDS011;49125;48.812;9.206;2022-10-16T14:16:43;1.50;;;1.27;;
63038;SDS011;49125;48.812;9.206;2022-10-16T14:19:20;1.42;;;1.25;;
63038;SDS011;49125;48.812;9.206;2022-10-16T14:21:49;1.40;;;1.30;;
63038;SDS011;49125;48.812;9.206;2022-10-16T14:24:24;1.42;;;1.33;;
63038;SDS011;49125;48.812;9.206;2022-10-16T14:26:58;1.50;;;1.40;;
63038;SDS011;49125;48.812;9.206;2022-10-16T14:29:25;1.67;;;1.30;;
63038;SDS011;49125;48.812;9.206;2022-10-16T14:32:04;3.08;;;1.25;;
63038;SDS011;49125;48.812;9.206;2022-10-16T14:34:35;1.30;;;1.20;;
63038;SDS011;49125;48.812;9.206;2022-10-16T14:37:24;1.80;;;1.50;;
63038;SDS011;49125;48.812;9.206;2022-10-16T14:39:54;1.75;;;1.58;;
63038;SDS011;49125;48.812;9.206;2022-10-16T14:42:21;1.48;;;1.38;;
63038;SDS011;49125;48.812;9.206;2022-10-16T14:44:50;1.80;;;1.60;;
63038;SDS011;49125;48.812;9.206;2022-10-16T14:47:24;1.45;;;1.20;;
63038;SDS011;49125;48.812;9.206;2022-10-16T14:49:51;1.80;;;1.60;;
63038;SDS011;49125;48.812;9.206;2022-10-16T14:52:20;3.38;;;1.95;;
63038;SDS011;49125;48.812;9.206;2022-10-16T14:54:48;3.30;;;2.50;;
63038;SDS011;49125;48.812;9.206;2022-10-16T14:57:18;3.00;;;2.58;;
63038;SDS011;49125;48.812;9.206;2022-10-16T14:59:47;4.32;;;2.53;;
63038;SDS011;49125;48.812;9.206;2022-10-16T15:02:27;2.67;;;2.33;;
63038;SDS011;49125;48.812;9.206;2022-10-16T15:04:54;3.17;;;2.40;;
63038;SDS011;49125;48.812;9.206;2022-10-16T15:07:20;4.65;;;3.40;;
63038;SDS011;49125;48.812;9.206;2022-10-16T15:09:46;4.22;;;3.28;;
63038;SDS011;49125;48.812;9.206;2022-10-16T15:12:12;2.65;;;2.25;;
63038;SDS011;49125;48.812;9.206;2022-10-16T15:14:37;2.28;;;2.08;;
63038;SDS011;49125;48.812;9.206;2022-10-16T15:17:03;2.25;;;1.90;;
63038;SDS011;49125;48.812;9.206;2022-10-16T15:19:29;2.75;;;1.80;;
63038;SDS011;49125;48.812;9.206;2022-10-16T15:21:55;2.30;;;1.92;;
63038;SDS011;49125;48.812;9.206;2022-10-16T15:24:20;1.73;;;1.52;;
63038;SDS011;49125;48.812;9.206;2022-10-16T15:26:46;2.45;;;2.00;;
63038;SDS011;49125;48.812;9.206;2022-10-16T15:29:12;1.70;;;1.60;;
63038;SDS011;49125;48.812;9.206;2022-10-16T15:31:38;2.40;;;1.90;;
63038;SDS011;49125;48.812;9.206;2022-10-16T15:34:08;1.77;;;1.67;;
63038;SDS011;49125;48.812;9.206;2022-10-16T15:36:35;2.63;;;2.20;;
63038;SDS011;49125;48.812;9.206;2022-10-16T15:39:03;2.22;;;1.95;;
63038;SDS011;49125;48.812;9.206;2022-10-16T15:41:29;2.15;;;1.95;;
63038;SDS011;49125;48.812;9.206;2022-10-16T15:43:55;2.97;;;1.75;;
63038;SDS011;49125;48.812;9.206;2022-10-16T15:46:21;1.98;;;1.77;;
63038;SDS011;49125;48.812;9.206;2022-10-16T15:48:48;1.75;;;1.63;;
63038;SDS011;49125;48.812;9.206;2022-10-16T15:51:15;4.53;;;1.60;;
63038;SDS011;49125;48.812;9.206;2022-10-16T15:53:41;2.08;;;1.80;;
63038;SDS011;49125;48.812;9.206;2022-10-16T15:56:08;1.92;;;1.55;;
63038;SDS011;49125;48.812;9.206;2022-10-16T15:58:35;2.00;;;1.80;;
63038;SDS011;49125;48.812;9.206;2022-10-16T16:01:01;2.92;;;1.80;;
63038;SDS011;49125;48.812;9.206;2022-10-16T16:03:28;2.17;;;1.95;;
63038;SDS011;49125;48.812;9.206;2022-10-16T16:05:55;2.10;;;1.90;;
63038;SDS011;49125;48.812;9.206;2022-10-16T16:08:21;2.42;;;2.22;;
63038;SDS011;49125;48.812;9.206;2022-10-16T16:10:59;2.28;;;2.08;;
63038;SDS011;49125;48.812;9.206;2022-10-16T16:13:35;2.78;;;2.10;;
63038;SDS011;49125;48.812;9.206;2022-10-16T16:16:07;2.63;;;2.30;;
63038;SDS011;49125;48.812;9.206;2022-10-16T16:18:34;3.17;;;2.88;;
63038;SDS011;49125;48.812;9.206;2022-10-16T16:20:59;4.45;;;1.80;;
63038;SDS011;49125;48.812;9.206;2022-10-16T16:23:25;2.20;;;1.90;;
63038;SDS011;49125;48.812;9.206;2022-10-16T16:28:31;3.53;;;2.42;;
63038;SDS011;49125;48.812;9.206;2022-10-16T16:30:57;2.42;;;2.13;;
63038;SDS011;49125;48.812;9.206;2022-10-16T16:33:22;2.33;;;1.98;;
63038;SDS011;49125;48.812;9.206;2022-10-16T16:35:49;3.10;;;2.10;;
63038;SDS011;49125;48.812;9.206;2022-10-16T16:38:14;2.70;;;2.15;;
63038;SDS011;49125;48.812;9.206;2022-10-16T16:40:40;4.53;;;4.00;;
63038;SDS011;49125;48.812;9.206;2022-10-16T16:43:05;6.93;;;5.07;;
63038;SDS011;49125;48.812;9.206;2022-10-16T16:45:34;6.97;;;5.68;;
63038;SDS011;49125;48.812;9.206;2022-10-16T16:48:00;5.93;;;4.55;;
63038;SDS011;49125;48.812;9.206;2022-10-16T16:50:26;2.95;;;2.70;;